createdAt,value
2018-05-18T00:00:29.550Z,68.1507
2018-05-18T00:01:34.990Z,68.4017
2018-05-18T00:02:39.859Z,67.897
2018-05-18T00:03:45.593Z,67.395
2018-05-18T00:04:51.041Z,68.6527
2018-05-18T00:05:56.251Z,68.9038
2018-05-18T00:07:02.033Z,68.1507
2018-05-18T00:08:06.609Z,68.9038
2018-05-18T00:09:11.488Z,68.6527
2018-05-18T00:10:17.047Z,69.4058
2018-05-18T00:11:22.495Z,69.4058
2018-05-18T00:12:27.989Z,69.4058
2018-05-18T00:13:32.851Z,69.4058
2018-05-18T00:14:37.447Z,68.4017
2018-05-18T00:15:43.037Z,69.1548
2018-05-18T00:16:47.917Z,68.4017
2018-05-18T00:17:52.502Z,69.1548
2018-05-18T00:18:58.120Z,69.1548
2018-05-18T00:20:02.724Z,69.1548
2018-05-18T00:21:07.883Z,69.6568
2018-05-18T00:22:13.283Z,69.1548
2018-05-18T00:23:18.440Z,69.4058
2018-05-18T00:24:23.579Z,69.1548
2018-05-18T00:25:29.207Z,69.4058
2018-05-18T00:26:34.393Z,69.4058
2018-05-18T00:27:40.212Z,68.9038
2018-05-18T00:28:44.996Z,69.8259
2018-05-18T00:29:50.428Z,69.1548
2018-05-18T00:30:56.024Z,69.6568
2018-05-18T00:32:01.176Z,69.6568
2018-05-18T00:33:06.035Z,69.4058
2018-05-18T00:34:11.463Z,68.9038
2018-05-18T00:35:16.892Z,69.6568
2018-05-18T00:36:22.051Z,70.077
2018-05-18T00:37:27.941Z,69.6568
2018-05-18T00:38:33.376Z,68.9038
2018-05-18T00:39:39.201Z,69.6568
2018-05-18T00:40:44.363Z,69.4058
2018-05-18T00:41:49.804Z,68.6527
2018-05-18T00:42:55.296Z,69.1548
2018-05-18T00:44:00.793Z,69.6568
2018-05-18T00:45:05.944Z,69.4058
2018-05-18T00:46:10.557Z,69.6568
2018-05-18T00:47:15.731Z,69.6568
2018-05-18T00:48:20.878Z,68.1507
2018-05-18T00:49:26.101Z,69.4058
2018-05-18T00:50:31.881Z,68.9038
2018-05-18T00:51:37.769Z,69.4058
2018-05-18T00:52:42.631Z,69.4058
2018-05-18T00:53:48.066Z,69.1548
2018-05-18T00:54:54.056Z,68.9038
2018-05-18T00:55:58.918Z,69.8259
2018-05-18T00:57:03.527Z,69.8259
2018-05-18T00:58:08.379Z,69.4058
2018-05-18T00:59:13.533Z,68.9038
2018-05-18T01:00:18.960Z,69.4058
2018-05-18T01:01:24.475Z,68.6527
2018-05-18T01:02:29.903Z,69.1548
2018-05-18T01:03:35.086Z,68.6527
2018-05-18T01:04:39.657Z,69.6568
2018-05-18T01:05:44.815Z,69.8259
2018-05-18T01:06:50.755Z,69.6568
2018-05-18T01:07:55.950Z,69.4058
2018-05-18T01:09:01.400Z,69.8259
2018-05-18T01:10:06.618Z,69.8259
2018-05-18T01:11:11.757Z,69.4058
2018-05-18T01:12:17.199Z,70.077
2018-05-18T01:13:22.679Z,69.6568
2018-05-18T01:14:27.841Z,69.4058
2018-05-18T01:15:33.307Z,69.4058
2018-05-18T01:16:38.737Z,70.077
2018-05-18T01:17:43.936Z,69.8259
2018-05-18T01:18:49.438Z,69.6568
2018-05-18T01:19:54.585Z,70.077
2018-05-18T01:21:00.038Z,70.077
2018-05-18T01:22:05.450Z,69.6568
2018-05-18T01:23:10.899Z,70.077
2018-05-18T01:24:15.769Z,70.328
2018-05-18T01:25:21.161Z,70.579
2018-05-18T01:26:26.035Z,69.6568
2018-05-18T01:27:31.965Z,69.6568
2018-05-18T01:28:37.111Z,69.4058
2018-05-18T01:29:42.252Z,69.6568
2018-05-18T01:30:48.049Z,69.1548
2018-05-18T01:31:52.930Z,69.8259
2018-05-18T01:32:58.371Z,69.6568
2018-05-18T01:34:03.589Z,68.9038
2018-05-18T01:35:08.466Z,69.4058
2018-05-18T01:36:13.344Z,68.6527
2018-05-18T01:37:18.795Z,68.9038
2018-05-18T01:38:23.960Z,68.6527
2018-05-18T01:39:29.793Z,69.1548
2018-05-18T01:40:34.671Z,69.6568
2018-05-18T01:41:40.103Z,69.6568
2018-05-18T01:42:45.843Z,68.6527
2018-05-18T01:43:50.726Z,69.4058
2018-05-18T01:44:55.880Z,69.8259
2018-05-18T01:46:01.626Z,69.1548
2018-05-18T01:47:06.481Z,69.1548
2018-05-18T01:48:11.337Z,69.4058
2018-05-18T01:49:17.236Z,69.4058
2018-05-18T01:50:22.395Z,69.1548
2018-05-18T01:51:27.738Z,69.1548
2018-05-18T01:52:32.890Z,69.8259
2018-05-18T01:53:38.053Z,69.6568
2018-05-18T01:54:43.886Z,70.9991
2018-05-18T01:55:49.367Z,70.579
2018-05-18T01:56:54.803Z,69.6568
2018-05-18T01:58:00.635Z,69.6568
2018-05-18T01:59:06.076Z,70.077
2018-05-18T02:00:10.983Z,69.1548
2018-05-18T02:01:16.718Z,69.6568
2018-05-18T02:02:22.159Z,70.077
2018-05-18T02:03:27.814Z,68.6527
2018-05-18T02:04:33.262Z,69.8259
2018-05-18T02:05:38.440Z,70.579
2018-05-18T02:06:44.191Z,69.6568
2018-05-18T02:07:49.091Z,70.077
2018-05-18T02:08:54.503Z,70.077
2018-05-18T02:09:59.662Z,68.6527
2018-05-18T02:11:04.526Z,69.4058
2018-05-18T02:12:09.679Z,68.9038
2018-05-18T02:13:15.468Z,69.8259
2018-05-18T02:14:20.115Z,69.4058
2018-05-18T02:15:40.508Z,69.1548
2018-05-18T02:16:45.090Z,69.4058
2018-05-18T02:17:49.969Z,69.1548
2018-05-18T02:18:55.522Z,70.077
2018-05-18T02:20:00.968Z,70.579
2018-05-18T02:21:05.849Z,70.077
2018-05-18T02:22:11.130Z,69.6568
2018-05-18T02:23:16.287Z,70.077
2018-05-18T02:24:21.722Z,69.1548
2018-05-18T02:25:42.102Z,69.6568
2018-05-18T02:26:46.974Z,70.328
2018-05-18T02:27:52.529Z,70.83
2018-05-18T02:28:57.961Z,70.077
2018-05-18T02:30:02.549Z,69.6568
2018-05-18T02:31:07.677Z,69.6568
2018-05-18T02:32:13.111Z,69.1548
2018-05-18T02:33:18.278Z,69.8259
2018-05-18T02:34:24.034Z,69.8259
2018-05-18T02:35:29.562Z,69.6568
2018-05-18T02:36:35.132Z,70.077
2018-05-18T02:37:39.715Z,69.6568
2018-05-18T02:38:45.151Z,69.8259
2018-05-18T02:39:51.058Z,69.8259
2018-05-18T02:40:56.213Z,69.6568
2018-05-18T02:42:01.081Z,69.6568
2018-05-18T02:43:06.066Z,69.6568
2018-05-18T02:44:11.229Z,69.1548
2018-05-18T02:45:16.404Z,68.6527
2018-05-18T02:46:22.183Z,68.6527
2018-05-18T02:47:27.365Z,68.6527
2018-05-18T02:48:33.296Z,68.9038
2018-05-18T02:49:38.727Z,68.1507
2018-05-18T02:50:44.170Z,68.6527
2018-05-18T02:51:50.009Z,68.1507
2018-05-18T02:52:55.438Z,68.4017
2018-05-18T02:54:00.304Z,68.4017
2018-05-18T02:55:05.930Z,68.1507
2018-05-18T02:56:10.803Z,68.6527
2018-05-18T02:57:15.951Z,68.6527
2018-05-18T02:58:20.821Z,68.4017
2018-05-18T02:59:25.795Z,68.9038
2018-05-18T03:00:30.714Z,67.646
2018-05-18T03:01:35.880Z,68.4017
2018-05-18T03:02:41.037Z,67.897
2018-05-18T03:03:46.868Z,66.7238
2018-05-18T03:04:52.324Z,68.4017
2018-05-18T03:05:57.200Z,67.395
2018-05-18T03:07:02.773Z,67.646
2018-05-18T03:08:07.657Z,68.1507
2018-05-18T03:09:12.298Z,67.4795
2018-05-18T03:10:18.026Z,66.9775
2018-05-18T03:11:22.929Z,67.2285
2018-05-18T03:12:28.909Z,66.9775
2018-05-18T03:13:34.126Z,67.4795
2018-05-18T03:14:39.584Z,67.4795
2018-05-18T03:15:45.443Z,67.897
2018-05-18T03:16:50.631Z,67.2285
2018-05-18T03:17:55.773Z,67.2285
2018-05-18T03:19:01.454Z,67.2285
2018-05-18T03:20:06.598Z,67.7306
2018-05-18T03:21:12.030Z,67.2285
2018-05-18T03:22:17.596Z,67.2285
2018-05-18T03:23:23.029Z,67.7306
2018-05-18T03:24:28.081Z,67.7306
2018-05-18T03:25:33.535Z,67.4795
2018-05-18T03:26:38.707Z,67.7306
2018-05-18T03:27:44.449Z,67.2285
2018-05-18T03:28:49.895Z,65.7198
2018-05-18T03:29:55.344Z,67.7306
2018-05-18T03:31:01.231Z,67.4795
2018-05-18T03:32:06.085Z,66.9775
2018-05-18T03:33:11.260Z,66.7238
2018-05-18T03:34:17.014Z,66.7238
2018-05-18T03:35:22.207Z,67.4795
2018-05-18T03:36:27.772Z,68.1507
2018-05-18T03:37:33.209Z,66.4728
2018-05-18T03:38:38.356Z,66.9775
2018-05-18T03:39:43.927Z,67.2285
2018-05-18T03:40:49.079Z,66.7238
2018-05-18T03:41:54.021Z,66.2218
2018-05-18T03:42:59.394Z,67.2285
2018-05-18T03:44:03.986Z,66.4728
2018-05-18T03:45:08.862Z,67.4795
2018-05-18T03:46:14.569Z,67.4795
2018-05-18T03:47:19.724Z,66.9775
2018-05-18T03:48:39.983Z,66.9775
2018-05-18T03:49:45.134Z,66.2218
2018-05-18T03:50:50.569Z,65.9708
2018-05-18T03:51:56.402Z,65.9708
2018-05-18T03:53:01.279Z,66.9775
2018-05-18T03:54:06.161Z,65.4687
2018-05-18T03:55:11.394Z,66.4728
2018-05-18T03:56:16.269Z,66.4728
2018-05-18T03:57:21.414Z,65.7198
2018-05-18T03:58:41.756Z,65.7198
2018-05-18T03:59:46.911Z,65.9708
2018-05-18T04:00:52.396Z,65.4687
2018-05-18T04:01:57.541Z,65.4687
2018-05-18T04:03:02.692Z,65.9708
2018-05-18T04:04:08.008Z,65.9708
2018-05-18T04:05:12.887Z,65.0486
2018-05-18T04:06:18.317Z,65.7198
2018-05-18T04:07:24.011Z,65.0486
2018-05-18T04:10:56.609Z,65.9708
2018-05-18T04:12:01.489Z,65.0486
2018-05-18T04:13:06.748Z,64.7976
2018-05-18T04:14:12.184Z,65.0486
2018-05-18T04:15:16.487Z,64.7976
2018-05-18T04:16:22.224Z,64.7976
2018-05-18T04:17:27.377Z,64.7976
2018-05-18T04:18:33.066Z,64.7976
2018-05-18T04:19:38.518Z,64.0445
2018-05-18T04:20:43.684Z,64.7976
2018-05-18T04:21:49.671Z,64.0445
2018-05-18T04:22:54.813Z,64.2956
2018-05-18T04:23:59.974Z,63.2915
2018-05-18T04:25:05.519Z,63.7935
2018-05-18T04:26:10.950Z,64.0445
2018-05-18T04:27:16.383Z,64.0445
2018-05-18T04:28:22.113Z,64.5466
2018-05-18T04:29:27.012Z,64.5466
2018-05-18T04:30:33.081Z,64.2956
2018-05-18T04:31:38.562Z,64.7976
2018-05-18T04:32:43.170Z,64.5466
2018-05-18T04:33:48.718Z,64.7976
2018-05-18T04:34:53.875Z,64.2956
2018-05-18T04:35:59.306Z,63.2915
2018-05-18T04:37:05.036Z,64.0445
2018-05-18T04:38:09.347Z,64.0445
2018-05-18T04:39:14.489Z,63.5425
2018-05-18T04:40:19.937Z,63.2915
2018-05-18T04:41:25.083Z,63.2915
2018-05-18T04:42:30.682Z,63.5425
2018-05-18T04:43:36.173Z,63.2915
2018-05-18T04:44:41.151Z,64.0445
2018-05-18T04:45:46.926Z,63.7935
2018-05-18T04:46:52.072Z,63.5425
2018-05-18T04:47:57.526Z,63.2915
2018-05-18T04:49:03.207Z,62.5358
2018-05-18T04:50:08.643Z,63.5425
2018-05-18T04:51:13.797Z,63.5425
2018-05-18T04:52:19.541Z,63.5425
2018-05-18T04:53:24.150Z,63.5425
2018-05-18T04:54:29.592Z,63.7935
2018-05-18T04:55:35.032Z,64.5466
2018-05-18T04:56:40.255Z,64.0445
2018-05-18T04:57:45.373Z,63.7935
2018-05-18T04:58:50.756Z,63.5425
2018-05-18T04:59:56.004Z,64.2956
2018-05-18T05:01:01.457Z,64.9667
2018-05-18T05:02:06.044Z,64.5466
2018-05-18T05:03:11.203Z,63.7935
2018-05-18T05:04:16.666Z,63.2915
2018-05-18T05:05:22.179Z,63.7935
2018-05-18T05:06:27.538Z,63.5425
2018-05-18T05:07:32.718Z,63.7935
2018-05-18T05:08:37.892Z,63.2915
2018-05-18T05:09:43.080Z,63.5425
2018-05-18T05:10:48.305Z,63.2915
2018-05-18T05:11:53.453Z,63.0405
2018-05-18T05:12:59.296Z,62.2847
2018-05-18T05:14:04.729Z,62.7894
2018-05-18T05:15:09.596Z,63.0405
2018-05-18T05:16:14.922Z,63.2915
2018-05-18T05:17:19.846Z,63.5425
2018-05-18T05:18:25.929Z,63.2915
2018-05-18T05:19:31.089Z,63.2915
2018-05-18T05:20:35.990Z,62.7894
2018-05-18T05:21:41.156Z,62.5358
2018-05-18T05:22:46.026Z,62.2847
2018-05-18T05:23:50.913Z,62.1183
2018-05-18T05:24:56.188Z,62.1183
2018-05-18T05:26:01.088Z,62.5358
2018-05-18T05:27:06.271Z,62.2847
2018-05-18T05:28:11.690Z,61.7008
2018-05-18T05:29:17.125Z,62.1183
2018-05-18T05:30:22.364Z,62.2847
2018-05-18T05:31:28.541Z,62.1183
2018-05-18T05:32:33.409Z,61.7008
2018-05-18T05:33:39.151Z,61.4498
2018-05-18T05:34:44.299Z,61.7008
2018-05-18T05:35:49.454Z,61.4498
2018-05-18T05:36:54.625Z,62.1183
2018-05-18T05:38:00.055Z,62.1183
2018-05-18T05:39:04.948Z,61.7008
2018-05-18T05:40:10.444Z,62.2847
2018-05-18T05:41:15.609Z,62.1183
2018-05-18T05:42:20.761Z,62.1183
2018-05-18T05:43:26.557Z,62.1183
2018-05-18T05:44:31.989Z,62.7894
2018-05-18T05:45:37.732Z,61.4498
2018-05-18T05:46:42.902Z,62.5358
2018-05-18T05:47:48.063Z,62.1183
2018-05-18T05:48:53.757Z,61.4498
2018-05-18T05:49:58.907Z,62.1183
2018-05-18T05:51:04.350Z,61.4498
2018-05-18T05:52:10.105Z,61.4498
2018-05-18T05:53:15.252Z,61.1961
2018-05-18T05:54:20.707Z,61.1961
2018-05-18T05:55:26.701Z,61.4498
2018-05-18T05:56:31.850Z,61.7008
2018-05-18T05:57:37.548Z,60.6941
2018-05-18T05:58:42.701Z,61.1961
2018-05-18T05:59:48.132Z,60.9451
2018-05-18T06:00:53.361Z,61.4498
2018-05-18T06:01:58.790Z,62.2847
2018-05-18T06:03:02.815Z,61.4498
2018-05-18T06:04:07.926Z,61.1961
2018-05-18T06:05:13.418Z,61.7008
2018-05-18T06:06:18.622Z,60.4431
2018-05-18T06:07:23.727Z,61.1961
2018-05-18T06:08:28.885Z,62.1183
2018-05-18T06:09:34.616Z,61.1961
2018-05-18T06:10:39.486Z,61.4498
2018-05-18T06:11:44.640Z,60.4431
2018-05-18T06:12:50.395Z,61.1961
2018-05-18T06:13:55.854Z,61.3652
2018-05-18T06:15:01.007Z,59.941
2018-05-18T06:16:05.956Z,61.3652
2018-05-18T06:17:10.877Z,60.192
2018-05-18T06:18:16.309Z,60.6941
2018-05-18T06:19:21.487Z,60.4431
2018-05-18T06:20:26.357Z,60.192
2018-05-18T06:21:32.239Z,60.3611
2018-05-18T06:22:37.674Z,60.6122
2018-05-18T06:23:42.565Z,59.941
2018-05-18T06:24:47.841Z,59.69
2018-05-18T06:25:52.989Z,60.3611
2018-05-18T06:26:58.450Z,59.6054
2018-05-18T06:28:03.391Z,59.6054
2018-05-18T06:29:08.569Z,59.6054
2018-05-18T06:30:13.755Z,59.6054
2018-05-18T06:31:19.566Z,60.1075
2018-05-18T06:32:24.999Z,59.8591
2018-05-18T06:33:30.784Z,59.8591
2018-05-18T06:34:36.108Z,59.3544
2018-05-18T06:35:41.056Z,59.3544
2018-05-18T06:36:46.508Z,59.6054
2018-05-18T06:37:51.969Z,59.3544
2018-05-18T06:38:57.126Z,58.8524
2018-05-18T06:40:02.031Z,58.8524
2018-05-18T06:41:06.946Z,58.8524
2018-05-18T06:42:12.169Z,58.6014
2018-05-18T06:43:17.910Z,58.0993
2018-05-18T06:44:23.339Z,57.5973
2018-05-18T06:45:28.784Z,57.5973
2018-05-18T06:46:33.981Z,59.1034
2018-05-18T06:47:39.420Z,57.8483
2018-05-18T06:48:44.538Z,58.3503
2018-05-18T06:49:49.711Z,58.3503
2018-05-18T06:50:55.150Z,58.0993
2018-05-18T06:52:00.033Z,58.3503
2018-05-18T06:53:05.060Z,59.1034
2018-05-18T06:54:10.231Z,57.8483
2018-05-18T06:55:15.987Z,57.8483
2018-05-18T06:56:20.871Z,57.3463
2018-05-18T06:57:26.872Z,58.3503
2018-05-18T06:58:32.323Z,57.5973
2018-05-18T06:59:37.753Z,58.0993
2018-05-18T07:00:43.493Z,58.6014
2018-05-18T07:01:48.946Z,58.0993
2018-05-18T07:02:54.381Z,58.3503
2018-05-18T07:03:59.755Z,57.8483
2018-05-18T07:05:04.727Z,57.0952
2018-05-18T07:06:09.873Z,57.0952
2018-05-18T07:07:15.707Z,56.5932
2018-05-18T07:08:20.594Z,56.8442
2018-05-18T07:09:26.682Z,57.0952
2018-05-18T07:10:32.380Z,57.0952
2018-05-18T07:11:37.878Z,56.4267
2018-05-18T07:12:43.425Z,57.0952
2018-05-18T07:13:48.568Z,57.3463
2018-05-18T07:14:53.723Z,57.5973
2018-05-18T07:15:59.130Z,56.8442
2018-05-18T07:17:03.430Z,56.5932
2018-05-18T07:18:08.608Z,56.8442
2018-05-18T07:19:13.503Z,57.8483
2018-05-18T07:20:18.093Z,57.8483
2018-05-18T07:21:23.527Z,57.3463
2018-05-18T07:22:29.131Z,57.3463
2018-05-18T07:23:34.007Z,57.3463
2018-05-18T07:24:39.167Z,57.0952
2018-05-18T07:25:44.335Z,56.5932
2018-05-18T07:26:49.522Z,57.3463
2018-05-18T07:27:54.934Z,56.0912
2018-05-18T07:28:59.530Z,56.8442
2018-05-18T07:30:04.870Z,56.8442
2018-05-18T07:31:10.566Z,56.5932
2018-05-18T07:32:15.431Z,55.6737
2018-05-18T07:33:20.029Z,56.3422
2018-05-18T07:34:25.466Z,55.922
2018-05-18T07:35:30.359Z,56.5932
2018-05-18T07:36:36.508Z,56.0912
2018-05-18T07:37:41.946Z,56.3422
2018-05-18T07:38:47.378Z,56.0912
2018-05-18T07:39:52.882Z,56.3422
2018-05-18T07:40:57.750Z,56.3422
2018-05-18T07:42:03.399Z,56.5932
2018-05-18T07:43:08.653Z,55.922
2018-05-18T07:44:14.090Z,55.922
2018-05-18T07:45:18.980Z,56.0912
2018-05-18T07:46:24.830Z,56.3422
2018-05-18T07:47:29.985Z,56.0912
2018-05-18T07:48:35.468Z,56.8442
2018-05-18T07:49:40.913Z,56.3422
2018-05-18T07:50:46.402Z,56.8442
2018-05-18T07:51:51.963Z,56.5932
2018-05-18T07:52:57.108Z,56.5932
2018-05-18T07:54:01.949Z,56.3422
2018-05-18T07:55:07.497Z,55.922
2018-05-18T07:56:12.926Z,55.922
2018-05-18T07:57:18.077Z,55.922
2018-05-18T07:58:23.060Z,56.8442
2018-05-18T07:59:28.316Z,56.5932
2018-05-18T08:00:33.954Z,56.0912
2018-05-18T08:01:38.900Z,56.0912
2018-05-18T08:02:44.334Z,56.3422
2018-05-18T08:03:49.899Z,56.5932
2018-05-18T08:04:55.058Z,56.0912
2018-05-18T08:06:00.497Z,55.922
2018-05-18T08:07:05.451Z,56.8442
2018-05-18T08:08:10.605Z,55.922
2018-05-18T08:09:16.039Z,56.3422
2018-05-18T08:10:21.449Z,56.0912
2018-05-18T08:11:26.596Z,55.922
2018-05-18T08:12:32.286Z,55.922
2018-05-18T08:13:37.511Z,55.6737
2018-05-18T08:14:42.945Z,55.169
2018-05-18T08:15:48.678Z,56.0912
2018-05-18T08:16:53.554Z,55.922
2018-05-18T08:17:58.988Z,55.6737
2018-05-18T08:19:03.973Z,55.4226
2018-05-18T08:20:09.118Z,55.922
2018-05-18T08:21:14.275Z,55.4226
2018-05-18T08:22:19.876Z,55.922
2018-05-18T08:23:25.354Z,55.169
2018-05-18T08:24:31.197Z,55.4226
2018-05-18T08:25:36.635Z,55.922
2018-05-18T08:26:41.797Z,55.922
2018-05-18T08:27:47.695Z,56.0912
2018-05-18T08:28:53.396Z,54.6696
2018-05-18T08:29:57.697Z,56.3422
2018-05-18T08:31:02.596Z,56.3422
2018-05-18T08:32:07.178Z,55.6737
2018-05-18T08:33:12.349Z,55.169
2018-05-18T08:34:17.531Z,54.918
2018-05-18T08:35:22.396Z,55.169
2018-05-18T08:36:28.382Z,54.6696
2018-05-18T08:37:33.258Z,54.918
2018-05-18T08:38:38.673Z,54.6696
2018-05-18T08:39:44.377Z,54.918
2018-05-18T08:40:49.254Z,55.4226
2018-05-18T08:41:54.417Z,54.6696
2018-05-18T08:42:59.712Z,55.4226
2018-05-18T08:44:04.022Z,55.4226
2018-05-18T08:45:09.455Z,55.169
2018-05-18T08:46:14.777Z,55.4226
2018-05-18T08:47:20.212Z,54.918
2018-05-18T08:48:26.233Z,53.9984
2018-05-18T08:49:31.680Z,54.918
2018-05-18T08:50:37.124Z,55.169
2018-05-18T08:51:42.533Z,54.2495
2018-05-18T08:52:47.690Z,55.169
2018-05-18T08:53:52.284Z,55.6737
2018-05-18T08:54:57.131Z,55.922
2018-05-18T08:56:02.284Z,55.6737
2018-05-18T08:57:06.877Z,54.918
2018-05-18T08:58:12.681Z,55.4226
2018-05-18T08:59:17.847Z,54.918
2018-05-18T09:00:22.725Z,55.922
2018-05-18T09:01:28.621Z,55.169
2018-05-18T09:02:33.777Z,55.4226
2018-05-18T09:03:39.247Z,55.169
2018-05-18T09:04:43.848Z,55.169
2018-05-18T09:05:48.163Z,54.6696
2018-05-18T09:06:53.634Z,54.918
2018-05-18T09:07:59.152Z,54.6696
2018-05-18T09:09:04.272Z,55.169
2018-05-18T09:10:09.828Z,55.4226
2018-05-18T09:11:14.988Z,54.918
2018-05-18T09:12:20.141Z,55.3381
2018-05-18T09:13:24.553Z,55.4226
2018-05-18T09:14:29.440Z,55.4226
2018-05-18T09:15:35.292Z,55.4226
2018-05-18T09:16:40.591Z,55.5891
2018-05-18T09:17:46.021Z,55.169
2018-05-18T09:18:51.862Z,55.6737
2018-05-18T09:19:56.719Z,55.4226
2018-05-18T09:21:01.594Z,54.918
2018-05-18T09:22:06.499Z,55.4226
2018-05-18T09:23:11.653Z,55.8401
2018-05-18T09:24:16.533Z,55.169
2018-05-18T09:25:22.272Z,55.8401
2018-05-18T09:26:27.628Z,55.8401
2018-05-18T09:27:33.357Z,55.169
2018-05-18T09:28:39.104Z,54.918
2018-05-18T09:29:43.981Z,55.6737
2018-05-18T09:30:49.440Z,55.4226
2018-05-18T09:31:54.904Z,55.8401
2018-05-18T09:33:00.346Z,54.918
2018-05-18T09:34:05.962Z,54.6696
2018-05-18T09:35:11.104Z,55.169
2018-05-18T09:36:15.702Z,55.4226
2018-05-18T09:37:21.157Z,55.169
2018-05-18T09:38:26.590Z,55.169
2018-05-18T09:39:32.525Z,55.6737
2018-05-18T09:40:36.842Z,54.918
2018-05-18T09:41:41.429Z,54.918
2018-05-18T09:42:47.220Z,55.5891
2018-05-18T09:43:52.382Z,55.4226
2018-05-18T09:44:57.816Z,55.5891
2018-05-18T09:46:02.966Z,56.0066
2018-05-18T09:47:07.480Z,55.5891
2018-05-18T09:48:12.651Z,55.3381
2018-05-18T09:49:18.249Z,55.8401
2018-05-18T09:50:23.679Z,55.5891
2018-05-18T09:51:28.391Z,55.8401
2018-05-18T09:52:33.552Z,55.3381
2018-05-18T09:53:39.055Z,55.5891
2018-05-18T09:54:45.726Z,55.5891
2018-05-18T09:55:51.643Z,55.3381
2018-05-18T09:56:56.512Z,55.0871
2018-05-18T09:58:01.931Z,55.0871
2018-05-18T09:59:06.240Z,55.0871
2018-05-18T10:00:11.399Z,56.2576
2018-05-18T10:01:16.919Z,55.5891
2018-05-18T10:02:21.792Z,54.836
2018-05-18T10:03:27.488Z,55.0871
2018-05-18T10:04:32.349Z,54.6696
2018-05-18T10:05:37.221Z,56.0066
2018-05-18T10:06:42.351Z,55.5891
2018-05-18T10:07:47.506Z,55.8401
2018-05-18T10:08:52.981Z,55.5891
2018-05-18T10:09:58.480Z,56.2576
2018-05-18T10:11:03.350Z,56.0066
2018-05-18T10:12:07.653Z,56.0066
2018-05-18T10:13:13.059Z,56.0066
2018-05-18T10:14:18.218Z,55.8401
2018-05-18T10:15:23.673Z,54.836
2018-05-18T10:16:29.559Z,56.0066
2018-05-18T10:17:35.004Z,55.3381
2018-05-18T10:18:40.801Z,55.5891
2018-05-18T10:19:45.704Z,55.0871
2018-05-18T10:20:50.564Z,55.5891
2018-05-18T10:21:55.867Z,55.3381
2018-05-18T10:23:01.504Z,55.3381
2018-05-18T10:24:06.133Z,53.832
2018-05-18T10:25:11.256Z,54.836
2018-05-18T10:26:16.469Z,54.334
2018-05-18T10:27:21.901Z,54.334
2018-05-18T10:28:27.399Z,54.836
2018-05-18T10:29:32.558Z,54.836
2018-05-18T10:30:38.253Z,54.585
2018-05-18T10:31:43.420Z,54.585
2018-05-18T10:32:49.030Z,55.0871
2018-05-18T10:33:54.799Z,54.334
2018-05-18T10:34:59.669Z,54.334
2018-05-18T10:36:04.293Z,54.585
2018-05-18T10:37:09.688Z,54.585
2018-05-18T10:38:14.992Z,54.4159
2018-05-18T10:39:19.856Z,53.9165
2018-05-18T10:40:34.757Z,55.5891
2018-05-18T10:41:39.355Z,54.6696
2018-05-18T10:42:45.147Z,55.169
2018-05-18T10:43:50.010Z,54.918
2018-05-18T10:44:55.454Z,55.6737
2018-05-18T10:46:00.344Z,55.169
2018-05-18T10:47:05.496Z,55.4226
2018-05-18T10:48:10.960Z,55.169
2018-05-18T10:49:16.444Z,54.4159
2018-05-18T10:50:21.919Z,55.4226
2018-05-18T10:51:27.482Z,56.3422
2018-05-18T10:52:32.923Z,55.169
2018-05-18T10:53:38.405Z,55.169
2018-05-18T10:54:44.089Z,55.0025
2018-05-18T10:55:49.242Z,55.4226
2018-05-18T10:56:54.111Z,55.4226
2018-05-18T10:57:59.792Z,55.5046
2018-05-18T10:59:04.969Z,56.5932
2018-05-18T11:00:09.616Z,55.0025
2018-05-18T11:01:14.844Z,56.0912
2018-05-18T11:02:19.998Z,55.5046
2018-05-18T11:03:25.199Z,55.6737
2018-05-18T11:04:30.682Z,56.3422
2018-05-18T11:05:35.269Z,55.922
2018-05-18T11:06:41.012Z,56.0912
2018-05-18T11:07:46.645Z,56.0912
2018-05-18T11:08:52.099Z,56.0912
2018-05-18T11:09:57.956Z,55.922
2018-05-18T11:11:02.276Z,56.5932
2018-05-18T11:12:07.809Z,55.922
2018-05-18T11:13:13.300Z,55.922
2018-05-18T11:14:19.276Z,56.0912
2018-05-18T11:15:24.555Z,56.0912
2018-05-18T11:16:44.661Z,57.3463
2018-05-18T11:17:49.823Z,55.922
2018-05-18T11:18:55.558Z,56.8442
2018-05-18T11:20:01.043Z,57.0952
2018-05-18T11:21:06.136Z,57.3463
2018-05-18T11:22:11.634Z,56.5932
2018-05-18T11:23:16.529Z,57.8483
2018-05-18T11:24:21.673Z,56.3422
2018-05-18T11:25:41.270Z,57.5973
2018-05-18T11:26:46.703Z,57.0952
2018-05-18T11:27:51.901Z,58.0993
2018-05-18T11:28:57.341Z,57.0952
2018-05-18T11:30:01.932Z,57.0952
2018-05-18T11:31:07.118Z,57.5973
2018-05-18T11:32:12.555Z,57.0952
2018-05-18T11:33:18.248Z,58.0993
2018-05-18T11:34:23.706Z,58.3503
2018-05-18T11:35:28.626Z,58.6014
2018-05-18T11:36:34.023Z,59.3544
2018-05-18T11:37:39.656Z,58.8524
2018-05-18T11:38:43.951Z,58.3503
2018-05-18T11:39:49.498Z,58.8524
2018-05-18T11:40:54.417Z,58.6014
2018-05-18T11:41:59.848Z,58.3503
2018-05-18T11:43:05.029Z,58.6014
2018-05-18T11:44:09.892Z,58.3503
2018-05-18T11:45:15.075Z,58.6014
2018-05-18T11:46:20.869Z,58.0993
2018-05-18T11:47:25.361Z,58.6014
2018-05-18T11:48:30.215Z,58.8524
2018-05-18T11:49:35.358Z,59.3544
2018-05-18T11:50:40.243Z,58.3503
2018-05-18T11:51:45.650Z,59.1034
2018-05-18T11:52:51.090Z,58.8524
2018-05-18T11:53:56.261Z,59.8591
2018-05-18T11:55:02.298Z,58.6014
2018-05-18T11:56:07.445Z,59.6054
2018-05-18T11:57:12.595Z,59.1034
2018-05-18T11:58:18.344Z,58.8524
2018-05-18T11:59:23.835Z,57.9328
2018-05-18T12:00:28.707Z,59.3544
2018-05-18T12:01:33.867Z,58.8524
2018-05-18T12:02:39.316Z,59.8591
2018-05-18T12:03:44.442Z,60.3611
2018-05-18T12:04:50.005Z,59.8591
2018-05-18T12:05:55.588Z,60.3611
2018-05-18T12:07:00.993Z,59.8591
2018-05-18T12:08:05.554Z,60.8632
2018-05-18T12:09:10.740Z,61.1142
2018-05-18T12:10:16.182Z,59.6054
2018-05-18T12:11:21.827Z,59.3544
2018-05-18T12:12:27.715Z,59.8591
2018-05-18T12:13:32.869Z,59.6054
2018-05-18T12:14:37.745Z,59.8591
2018-05-18T12:15:43.373Z,59.6054
2018-05-18T12:16:48.321Z,59.6054
2018-05-18T12:17:53.211Z,59.6054
2018-05-18T12:18:59.046Z,60.1075
2018-05-18T12:20:04.209Z,59.8591
2018-05-18T12:21:09.103Z,59.8591
2018-05-18T12:22:14.784Z,61.1142
2018-05-18T12:23:19.940Z,60.3611
2018-05-18T12:24:24.817Z,61.1142
2018-05-18T12:25:29.712Z,60.6122
2018-05-18T12:26:35.140Z,60.8632
2018-05-18T12:27:39.746Z,61.3652
2018-05-18T12:28:45.181Z,61.1142
2018-05-18T12:29:50.339Z,61.3652
2018-05-18T12:30:55.578Z,60.6122
2018-05-18T12:32:00.442Z,62.0337
2018-05-18T12:33:05.651Z,62.0337
2018-05-18T12:34:11.047Z,60.8632
2018-05-18T12:35:16.415Z,61.6162
2018-05-18T12:36:21.761Z,61.1142
2018-05-18T12:37:26.809Z,62.2847
2018-05-18T12:38:31.966Z,61.6162
2018-05-18T12:39:37.536Z,61.3652
2018-05-18T12:40:42.966Z,62.4539
2018-05-18T12:41:47.847Z,61.6162
2018-05-18T12:42:53.363Z,62.0337
2018-05-18T12:43:58.229Z,62.0337
2018-05-18T12:45:03.117Z,62.5358
2018-05-18T12:46:07.676Z,61.6162
2018-05-18T12:47:12.821Z,61.1142
2018-05-18T12:48:18.254Z,62.0337
2018-05-18T12:49:23.375Z,62.0337
2018-05-18T12:50:28.552Z,62.7049
2018-05-18T12:51:34.002Z,62.2847
2018-05-18T12:52:39.154Z,62.7049
2018-05-18T12:53:44.668Z,63.709
2018-05-18T12:54:50.124Z,62.7049
2018-05-18T12:55:55.561Z,63.2069
2018-05-18T12:57:01.001Z,62.7049
2018-05-18T12:58:06.410Z,63.4579
2018-05-18T12:59:11.576Z,62.9559
2018-05-18T13:00:16.160Z,63.709
2018-05-18T13:01:21.624Z,62.7049
2018-05-18T13:02:26.501Z,62.9559
2018-05-18T13:03:31.968Z,64.211
2018-05-18T13:04:37.112Z,63.2069
2018-05-18T13:05:42.284Z,63.4579
2018-05-18T13:06:47.732Z,63.4579
2018-05-18T13:07:52.876Z,63.4579
2018-05-18T13:08:57.746Z,63.4579
2018-05-18T13:10:02.737Z,64.211
2018-05-18T13:11:08.180Z,63.4579
2018-05-18T13:12:13.043Z,63.709
2018-05-18T13:13:18.776Z,63.96
2018-05-18T13:14:24.211Z,63.0405
2018-05-18T13:15:29.697Z,63.5425
2018-05-18T13:16:34.716Z,63.709
2018-05-18T13:17:39.595Z,63.96